Terminal Aerodrome Forecast
Issued by NWS

Home | Current Version | Previous Version | Text Only | Print | Product List | Glossary On
Versions: 1 2 3 4 5 6 7 8 9 10 11 12 13 14
536
FTUS42 KGSP 100533
TAFAND
TAF
KAND 100533Z 1006/1106 27012KT P6SM FEW050 SCT090
     FM101600 27016G24KT P6SM FEW050 SCT150
     FM110000 26009KT P6SM FEW120=

USA.gov is the U.S. government's official web portal to all federal, state and local government web resources and services.